createdAt,value
2023-10-07T00:00:34.083Z,57.95
2023-10-07T00:01:38.500Z,57.98
2023-10-07T00:02:40.824Z,57.74
2023-10-07T00:03:44.176Z,57.87
2023-10-07T00:04:46.704Z,58.03
2023-10-07T00:05:51.792Z,58.04
2023-10-07T00:06:54.838Z,58.13
2023-10-07T00:08:01.777Z,58.15
2023-10-07T00:09:11.171Z,58.11
2023-10-07T00:10:16.721Z,58.00
2023-10-07T00:11:21.863Z,58.00
2023-10-07T00:12:26.876Z,58.03
2023-10-07T00:13:32.608Z,58.10
2023-10-07T00:14:37.468Z,58.10
2023-10-07T00:15:40.741Z,58.08
2023-10-07T00:16:44.778Z,58.32
2023-10-07T00:17:48.462Z,58.32
2023-10-07T00:18:50.666Z,58.36
2023-10-07T00:19:54.129Z,58.40
2023-10-07T00:20:57.246Z,58.33
2023-10-07T00:22:00.009Z,58.34
2023-10-07T00:23:03.224Z,58.47
2023-10-07T00:24:07.669Z,58.57
2023-10-07T00:25:13.597Z,58.67
2023-10-07T00:26:17.499Z,58.79
2023-10-07T00:27:27.977Z,58.85
2023-10-07T00:28:33.753Z,58.82
2023-10-07T00:29:53.978Z,58.95
2023-10-07T00:30:56.950Z,58.96
2023-10-07T00:32:01.154Z,58.94
2023-10-07T00:33:04.321Z,59.05
2023-10-07T00:34:14.835Z,59.16
2023-10-07T00:35:17.824Z,58.98
2023-10-07T00:36:43.040Z,58.85
2023-10-07T00:37:45.687Z,58.85
2023-10-07T00:38:48.985Z,59.05
2023-10-07T00:39:52.553Z,59.22
2023-10-07T00:40:55.744Z,59.28
2023-10-07T00:41:59.989Z,59.27
2023-10-07T00:43:08.617Z,59.32
2023-10-07T00:44:18.304Z,59.26
2023-10-07T00:45:21.571Z,59.23
2023-10-07T00:46:30.073Z,59.22
2023-10-07T00:47:35.859Z,59.13
2023-10-07T00:48:48.038Z,59.29
2023-10-07T00:49:56.131Z,59.35
2023-10-07T00:50:59.075Z,59.22
2023-10-07T00:52:04.640Z,59.24
2023-10-07T00:53:09.549Z,59.22
2023-10-07T00:54:19.867Z,59.27
2023-10-07T00:55:29.170Z,59.34
2023-10-07T00:56:35.599Z,59.32
2023-10-07T00:57:48.883Z,59.30
2023-10-07T00:58:54.244Z,59.38
2023-10-07T00:59:59.241Z,59.47
2023-10-07T01:01:06.525Z,59.46
2023-10-07T01:02:19.766Z,59.56
2023-10-07T01:03:33.335Z,59.64
2023-10-07T01:04:41.942Z,59.72
2023-10-07T01:05:56.404Z,59.70
2023-10-07T01:07:04.497Z,59.68
2023-10-07T01:08:08.951Z,59.81
2023-10-07T01:09:12.242Z,59.90
2023-10-07T01:10:15.441Z,59.93
2023-10-07T01:11:23.561Z,60.00
2023-10-07T01:12:37.211Z,60.09
2023-10-07T01:13:47.293Z,60.11
2023-10-07T01:14:51.187Z,60.21
2023-10-07T01:15:54.943Z,60.23
2023-10-07T01:17:01.785Z,60.40
2023-10-07T01:18:06.394Z,60.48
2023-10-07T01:19:20.500Z,60.60
2023-10-07T01:20:26.320Z,60.76
2023-10-07T01:21:33.295Z,60.83
2023-10-07T01:22:37.752Z,60.81
2023-10-07T01:23:41.033Z,60.83
2023-10-07T01:24:47.519Z,60.91
2023-10-07T01:25:52.407Z,60.92
2023-10-07T01:26:54.660Z,61.03
2023-10-07T01:27:58.031Z,61.07
2023-10-07T01:29:05.944Z,61.10
2023-10-07T01:30:17.564Z,61.14
2023-10-07T01:31:20.299Z,61.13
2023-10-07T01:32:23.628Z,61.23
2023-10-07T01:33:36.372Z,61.27
2023-10-07T01:34:40.118Z,61.40
2023-10-07T01:36:02.320Z,61.38
2023-10-07T01:37:06.632Z,61.49
2023-10-07T01:38:10.301Z,61.56
2023-10-07T01:39:14.514Z,61.62
2023-10-07T01:40:17.860Z,61.69
2023-10-07T01:41:23.048Z,61.74
2023-10-07T01:42:27.973Z,61.84
2023-10-07T01:43:31.234Z,61.93
2023-10-07T01:44:40.110Z,62.06
2023-10-07T01:45:43.288Z,62.09
2023-10-07T01:46:45.533Z,62.15
2023-10-07T01:47:49.115Z,62.18
2023-10-07T01:48:56.762Z,62.30
2023-10-07T01:49:59.940Z,62.31
2023-10-07T01:51:06.311Z,62.28
2023-10-07T01:52:08.457Z,62.41
2023-10-07T01:53:13.068Z,62.51
2023-10-07T01:54:15.198Z,62.51
2023-10-07T01:55:18.771Z,62.56
2023-10-07T01:56:21.167Z,62.61
2023-10-07T01:57:24.569Z,62.70
2023-10-07T01:58:26.856Z,62.74
2023-10-07T01:59:30.372Z,62.83
2023-10-07T02:00:41.979Z,62.86
2023-10-07T02:01:51.101Z,62.83
2023-10-07T02:03:01.057Z,62.78
2023-10-07T02:04:08.815Z,62.83
2023-10-07T02:05:13.729Z,62.87
2023-10-07T02:06:19.415Z,62.94
2023-10-07T02:07:23.050Z,62.94
2023-10-07T02:08:26.916Z,62.93
2023-10-07T02:09:36.228Z,63.00
2023-10-07T02:10:41.988Z,62.94
2023-10-07T02:11:45.190Z,62.87
2023-10-07T02:12:47.738Z,62.74
2023-10-07T02:13:52.908Z,62.66
2023-10-07T02:14:55.127Z,62.58
2023-10-07T02:15:58.387Z,62.61
2023-10-07T02:17:00.966Z,62.52
2023-10-07T02:18:05.484Z,62.40
2023-10-07T02:19:08.752Z,62.32
2023-10-07T02:20:23.981Z,62.40
2023-10-07T02:21:28.072Z,62.38
2023-10-07T02:22:31.999Z,62.34
2023-10-07T02:23:38.657Z,62.26
2023-10-07T02:24:42.717Z,62.34
2023-10-07T02:25:50.361Z,62.29
2023-10-07T02:26:55.921Z,62.22
2023-10-07T02:27:58.113Z,62.20
2023-10-07T02:29:08.941Z,62.21
2023-10-07T02:30:20.784Z,62.16
2023-10-07T02:31:28.240Z,62.07
2023-10-07T02:32:33.278Z,62.06
2023-10-07T02:33:43.193Z,62.05
2023-10-07T02:34:53.208Z,61.99
2023-10-07T02:35:57.122Z,61.88
2023-10-07T02:37:12.765Z,61.90
2023-10-07T02:38:24.960Z,61.92
2023-10-07T02:39:49.069Z,61.87
2023-10-07T02:40:53.950Z,61.82
2023-10-07T02:41:57.976Z,61.82
2023-10-07T02:43:00.246Z,61.82
2023-10-07T02:44:06.456Z,61.82
2023-10-07T02:45:21.277Z,61.81
2023-10-07T02:46:33.240Z,61.85
2023-10-07T02:47:35.921Z,61.87
2023-10-07T02:48:39.988Z,61.95
2023-10-07T02:49:48.136Z,62.04
2023-10-07T02:50:53.254Z,62.09
2023-10-07T02:51:57.286Z,62.15
2023-10-07T02:53:02.842Z,62.11
2023-10-07T02:54:08.310Z,62.22
2023-10-07T02:55:30.937Z,62.20
2023-10-07T02:56:45.711Z,62.32
2023-10-07T02:57:56.395Z,62.35
2023-10-07T02:59:02.566Z,62.41
2023-10-07T03:00:16.318Z,62.48
2023-10-07T03:01:19.739Z,62.50
2023-10-07T03:02:38.547Z,62.52
2023-10-07T03:03:42.447Z,62.35
2023-10-07T03:04:56.218Z,62.30
2023-10-07T03:05:59.833Z,62.32
2023-10-07T03:07:14.259Z,62.26
2023-10-07T03:08:20.851Z,62.22
2023-10-07T03:09:26.803Z,62.24
2023-10-07T03:10:43.891Z,62.42
2023-10-07T03:11:50.416Z,62.34
2023-10-07T03:12:58.594Z,62.40
2023-10-07T03:14:04.554Z,62.46
2023-10-07T03:15:22.014Z,62.43
2023-10-07T03:16:43.778Z,62.44
2023-10-07T03:17:47.827Z,62.46
2023-10-07T03:18:56.637Z,62.41
2023-10-07T03:20:19.816Z,62.38
2023-10-07T03:21:23.158Z,62.40
2023-10-07T03:22:29.931Z,62.34
2023-10-07T03:23:34.956Z,62.38
2023-10-07T03:24:43.228Z,62.38
2023-10-07T03:26:06.989Z,62.39
2023-10-07T03:27:12.888Z,62.41
2023-10-07T03:28:18.493Z,62.47
2023-10-07T03:29:31.997Z,62.56
2023-10-07T03:30:38.115Z,62.53
2023-10-07T03:31:48.943Z,62.57
2023-10-07T03:32:59.637Z,62.70
2023-10-07T03:34:02.856Z,62.69
2023-10-07T03:35:18.472Z,62.75
2023-10-07T03:36:42.658Z,62.78
2023-10-07T03:37:45.754Z,62.85
2023-10-07T03:38:56.374Z,62.88
2023-10-07T03:40:24.433Z,62.91
2023-10-07T03:41:34.936Z,62.87
2023-10-07T03:42:39.222Z,62.89
2023-10-07T03:43:42.544Z,62.84
2023-10-07T03:44:47.433Z,62.65
2023-10-07T03:45:51.312Z,62.62
2023-10-07T03:46:56.083Z,62.55
2023-10-07T03:47:59.927Z,62.38
2023-10-07T03:49:02.432Z,62.31
2023-10-07T03:50:26.135Z,62.33
2023-10-07T03:51:32.128Z,62.33
2023-10-07T03:52:38.746Z,62.26
2023-10-07T03:53:45.967Z,62.13
2023-10-07T03:54:49.713Z,62.20
2023-10-07T03:55:52.911Z,62.07
2023-10-07T03:56:57.579Z,62.16
2023-10-07T03:58:00.106Z,62.13
2023-10-07T03:59:02.370Z,62.19
2023-10-07T04:00:12.186Z,62.16
2023-10-07T04:01:18.177Z,62.16
2023-10-07T04:02:38.081Z,62.20
2023-10-07T04:03:41.246Z,62.29
2023-10-07T04:04:44.484Z,62.33
2023-10-07T04:05:50.578Z,62.23
2023-10-07T04:06:54.440Z,62.37
2023-10-07T04:07:56.595Z,62.40
2023-10-07T04:09:07.071Z,62.42
2023-10-07T04:10:16.820Z,62.41
2023-10-07T04:11:20.937Z,62.50
2023-10-07T04:12:27.427Z,62.55
2023-10-07T04:13:30.595Z,62.61
2023-10-07T04:14:36.661Z,62.70
2023-10-07T04:15:52.273Z,62.80
2023-10-07T04:16:55.772Z,63.00
2023-10-07T04:18:01.087Z,63.07
2023-10-07T04:19:31.193Z,63.17
2023-10-07T04:20:52.351Z,63.29
2023-10-07T04:21:56.248Z,63.29
2023-10-07T04:23:02.058Z,63.20
2023-10-07T04:24:06.912Z,63.22
2023-10-07T04:25:18.801Z,63.31
2023-10-07T04:26:21.534Z,63.30
2023-10-07T04:27:27.771Z,63.28
2023-10-07T04:28:30.052Z,63.24
2023-10-07T04:29:33.897Z,63.42
2023-10-07T04:30:40.381Z,63.48
2023-10-07T04:31:46.488Z,63.37
2023-10-07T04:32:54.055Z,63.17
2023-10-07T04:34:01.930Z,63.05
2023-10-07T04:35:17.637Z,63.18
2023-10-07T04:36:35.533Z,63.30
2023-10-07T04:37:49.126Z,63.14
2023-10-07T04:38:55.258Z,63.21
2023-10-07T04:40:15.860Z,63.15
2023-10-07T04:41:32.108Z,63.16
2023-10-07T04:42:39.047Z,63.04
2023-10-07T04:43:51.282Z,62.97
2023-10-07T04:45:19.026Z,62.96
2023-10-07T04:46:23.771Z,62.94
2023-10-07T04:47:41.252Z,62.97
2023-10-07T04:48:55.352Z,63.00
2023-10-07T04:50:01.535Z,63.04
2023-10-07T04:51:04.672Z,62.98
2023-10-07T04:52:11.922Z,62.99
2023-10-07T04:53:14.157Z,62.99
2023-10-07T04:54:22.285Z,63.01
2023-10-07T04:55:27.610Z,63.01
2023-10-07T04:56:33.617Z,63.00
2023-10-07T04:57:57.837Z,63.00
2023-10-07T05:00:10.848Z,63.08
2023-10-07T05:01:23.823Z,63.05
2023-10-07T05:02:27.192Z,63.04
2023-10-07T05:03:30.507Z,63.00
2023-10-07T05:04:33.966Z,63.01
2023-10-07T05:05:36.456Z,63.00
2023-10-07T05:06:41.535Z,63.01
2023-10-07T05:07:44.799Z,62.97
2023-10-07T05:08:47.118Z,62.98
2023-10-07T05:09:50.560Z,62.98
2023-10-07T05:10:54.082Z,62.96
2023-10-07T05:11:58.906Z,62.98
2023-10-07T05:13:07.473Z,62.97
2023-10-07T05:14:10.894Z,62.93
2023-10-07T05:15:15.119Z,62.93
2023-10-07T05:16:18.349Z,62.93
2023-10-07T05:17:24.350Z,62.93
2023-10-07T05:18:26.808Z,62.96
2023-10-07T05:19:31.664Z,63.00
2023-10-07T05:20:37.236Z,63.01
2023-10-07T05:21:39.819Z,63.01
2023-10-07T05:22:43.519Z,63.02
2023-10-07T05:23:45.630Z,63.14
2023-10-07T05:24:52.933Z,63.21
2023-10-07T05:25:55.241Z,63.25
2023-10-07T05:27:01.276Z,63.32
2023-10-07T05:28:12.007Z,63.36
2023-10-07T05:29:16.214Z,63.35
2023-10-07T05:30:19.652Z,63.36
2023-10-07T05:31:22.813Z,63.40
2023-10-07T05:32:27.158Z,63.40
2023-10-07T05:33:33.335Z,63.44
2023-10-07T05:34:35.596Z,63.45
2023-10-07T05:35:38.835Z,63.44
2023-10-07T05:36:41.491Z,63.44
2023-10-07T05:37:46.009Z,63.51
2023-10-07T05:38:48.875Z,63.52
2023-10-07T05:39:53.119Z,63.51
2023-10-07T05:41:01.415Z,63.53
2023-10-07T05:42:07.171Z,63.50
2023-10-07T05:43:11.118Z,63.56
2023-10-07T05:44:15.867Z,63.58
2023-10-07T05:45:19.078Z,63.61
2023-10-07T05:46:22.310Z,63.63
2023-10-07T05:47:25.179Z,63.62
2023-10-07T05:48:28.403Z,63.62
2023-10-07T05:49:32.414Z,63.62
2023-10-07T05:50:35.912Z,63.66
2023-10-07T05:51:38.231Z,63.68
2023-10-07T05:52:41.736Z,63.69
2023-10-07T05:53:49.379Z,63.77
2023-10-07T05:54:57.948Z,63.79
2023-10-07T05:56:00.861Z,63.83
2023-10-07T05:57:05.679Z,63.87
2023-10-07T05:58:07.884Z,63.88
2023-10-07T05:59:12.870Z,63.91
2023-10-07T06:00:18.329Z,63.94
2023-10-07T06:01:21.471Z,63.94
2023-10-07T06:02:24.321Z,64.04
2023-10-07T06:03:27.786Z,64.10
2023-10-07T06:04:30.071Z,64.12
2023-10-07T06:05:34.828Z,64.10
2023-10-07T06:06:37.083Z,64.15
2023-10-07T06:07:41.009Z,64.18
2023-10-07T06:08:43.330Z,64.27
2023-10-07T06:09:46.495Z,64.35
2023-10-07T06:10:53.215Z,64.41
2023-10-07T06:11:58.796Z,64.41
2023-10-07T06:13:01.005Z,64.47
2023-10-07T06:14:06.097Z,64.56
2023-10-07T06:15:12.053Z,64.58
2023-10-07T06:16:15.776Z,64.65
2023-10-07T06:17:17.946Z,64.73
2023-10-07T06:18:22.621Z,64.81
2023-10-07T06:19:25.502Z,64.83
2023-10-07T06:20:27.915Z,64.91
2023-10-07T06:21:33.078Z,65.00
2023-10-07T06:22:40.368Z,65.06
2023-10-07T06:23:43.550Z,65.09
2023-10-07T06:24:46.001Z,65.17
2023-10-07T06:25:51.129Z,65.15
2023-10-07T06:26:54.983Z,65.14
2023-10-07T06:27:59.358Z,65.08
2023-10-07T06:29:08.100Z,65.01
2023-10-07T06:30:17.948Z,64.87
2023-10-07T06:31:23.980Z,64.90
2023-10-07T06:32:42.831Z,64.86
2023-10-07T06:33:48.311Z,64.61
2023-10-07T06:34:53.212Z,64.38
2023-10-07T06:35:55.510Z,64.36
2023-10-07T06:36:58.670Z,64.31
2023-10-07T06:38:00.847Z,64.19
2023-10-07T06:39:06.832Z,64.14
2023-10-07T06:40:24.637Z,63.94
2023-10-07T06:41:30.359Z,63.77
2023-10-07T06:42:32.682Z,63.60
2023-10-07T06:43:35.831Z,63.39
2023-10-07T06:44:39.614Z,63.31
2023-10-07T06:45:45.869Z,63.16
2023-10-07T06:46:56.156Z,63.06
2023-10-07T06:48:00.847Z,62.95
2023-10-07T06:49:03.711Z,62.85
2023-10-07T06:50:08.041Z,62.89
2023-10-07T06:51:12.526Z,62.90
2023-10-07T06:52:17.214Z,63.02
2023-10-07T06:53:24.093Z,63.13
2023-10-07T06:54:33.468Z,63.17
2023-10-07T06:55:42.314Z,62.97
2023-10-07T06:56:46.466Z,62.28
2023-10-07T06:57:49.296Z,62.14
2023-10-07T06:58:55.705Z,61.69
2023-10-07T06:59:57.908Z,61.71
2023-10-07T07:01:11.843Z,61.64
2023-10-07T07:02:24.921Z,61.89
2023-10-07T07:03:28.706Z,61.82
2023-10-07T07:04:31.427Z,61.64
2023-10-07T07:05:36.372Z,61.42
2023-10-07T07:06:43.971Z,61.25
2023-10-07T07:07:49.303Z,61.23
2023-10-07T07:08:52.081Z,61.03
2023-10-07T07:09:59.573Z,61.07
2023-10-07T07:11:11.170Z,60.95
2023-10-07T07:12:18.034Z,61.17
2023-10-07T07:13:27.169Z,61.01
2023-10-07T07:14:30.071Z,60.72
2023-10-07T07:15:37.767Z,60.72
2023-10-07T07:16:43.652Z,60.63
2023-10-07T07:17:47.078Z,60.24
2023-10-07T07:18:49.271Z,60.13
2023-10-07T07:20:13.300Z,60.11
2023-10-07T07:21:32.720Z,60.08
2023-10-07T07:22:35.317Z,60.24
2023-10-07T07:23:40.978Z,60.56
2023-10-07T07:24:43.399Z,60.07
2023-10-07T07:25:51.136Z,59.80
2023-10-07T07:26:53.966Z,59.71
2023-10-07T07:27:59.550Z,59.60
2023-10-07T07:29:05.806Z,59.62
2023-10-07T07:30:15.432Z,59.39
2023-10-07T07:31:20.834Z,59.28
2023-10-07T07:32:29.384Z,59.15
2023-10-07T07:33:36.411Z,59.11
2023-10-07T07:34:39.718Z,59.10
2023-10-07T07:35:45.193Z,59.18
2023-10-07T07:36:57.252Z,59.07
2023-10-07T07:38:04.199Z,58.74
2023-10-07T07:39:10.854Z,58.78
2023-10-07T07:40:35.985Z,58.65
2023-10-07T07:41:56.557Z,58.40
2023-10-07T07:42:59.121Z,58.53
2023-10-07T07:44:03.557Z,58.71
2023-10-07T07:45:16.477Z,58.55
2023-10-07T07:46:30.341Z,57.93
2023-10-07T07:47:34.254Z,57.57
2023-10-07T07:48:39.292Z,57.88
2023-10-07T07:49:42.414Z,57.41
2023-10-07T07:50:45.661Z,57.21
2023-10-07T07:51:52.720Z,57.18
2023-10-07T07:52:55.916Z,56.89
2023-10-07T07:53:59.321Z,56.46
2023-10-07T07:55:02.611Z,56.32
2023-10-07T07:56:04.941Z,56.48
2023-10-07T07:57:09.255Z,56.13
2023-10-07T07:58:12.047Z,55.88
2023-10-07T07:59:19.450Z,55.89
2023-10-07T08:00:22.040Z,56.02
2023-10-07T08:01:30.249Z,56.02
2023-10-07T08:02:37.441Z,55.96
2023-10-07T08:03:40.876Z,55.86
2023-10-07T08:04:47.383Z,55.90
2023-10-07T08:05:50.971Z,55.91
2023-10-07T08:06:53.165Z,56.15
2023-10-07T08:07:56.936Z,56.06
2023-10-07T08:08:59.333Z,55.80
2023-10-07T08:10:05.266Z,55.86
2023-10-07T08:11:08.861Z,55.95
2023-10-07T08:12:12.274Z,56.08
2023-10-07T08:13:18.660Z,55.88
2023-10-07T08:14:23.536Z,56.00
2023-10-07T08:15:25.751Z,56.18
2023-10-07T08:16:28.948Z,56.27
2023-10-07T08:17:31.615Z,56.05
2023-10-07T08:18:36.196Z,55.70
2023-10-07T08:19:39.317Z,55.98
2023-10-07T08:20:45.888Z,56.37
2023-10-07T08:21:52.806Z,55.93
2023-10-07T08:22:57.104Z,55.63
2023-10-07T08:24:03.380Z,55.69
2023-10-07T08:25:09.672Z,55.48
2023-10-07T08:26:13.475Z,55.12
2023-10-07T08:27:30.636Z,55.21
2023-10-07T08:28:43.778Z,55.33
2023-10-07T08:29:46.076Z,55.40
2023-10-07T08:30:49.491Z,55.49
2023-10-07T08:31:51.776Z,55.13
2023-10-07T08:32:54.982Z,55.44
2023-10-07T08:34:11.671Z,55.38
2023-10-07T08:35:19.450Z,55.27
2023-10-07T08:36:30.448Z,55.34
2023-10-07T08:37:34.503Z,55.34
2023-10-07T08:38:39.453Z,55.40
2023-10-07T08:39:46.644Z,55.55
2023-10-07T08:40:57.679Z,55.52
2023-10-07T08:42:13.862Z,55.54
2023-10-07T08:43:21.407Z,55.70
2023-10-07T08:44:31.276Z,55.37
2023-10-07T08:45:40.644Z,55.46
2023-10-07T08:46:50.380Z,54.92
2023-10-07T08:47:53.260Z,55.04
2023-10-07T08:49:05.648Z,55.17
2023-10-07T08:50:09.333Z,55.28
2023-10-07T08:51:15.868Z,55.44
2023-10-07T08:52:20.357Z,55.49
2023-10-07T08:53:24.997Z,54.90
2023-10-07T08:54:27.702Z,54.84
2023-10-07T08:55:31.547Z,54.29
2023-10-07T08:56:37.260Z,54.12
2023-10-07T08:57:41.457Z,54.01
2023-10-07T08:58:45.920Z,54.01
2023-10-07T08:59:53.489Z,54.67
2023-10-07T09:00:57.556Z,54.32
2023-10-07T09:02:01.772Z,54.32
2023-10-07T09:03:15.979Z,53.37
2023-10-07T09:04:20.886Z,53.37
2023-10-07T09:05:25.926Z,53.13
2023-10-07T09:06:34.655Z,52.33
2023-10-07T09:07:37.921Z,52.15
2023-10-07T09:08:42.561Z,51.97
2023-10-07T09:09:45.643Z,51.54
2023-10-07T09:10:49.851Z,51.64
2023-10-07T09:11:53.323Z,52.13
2023-10-07T09:13:05.361Z,51.82
2023-10-07T09:14:08.318Z,51.33
2023-10-07T09:15:21.176Z,51.31
2023-10-07T09:16:26.393Z,49.38
2023-10-07T09:17:31.119Z,49.57
2023-10-07T09:18:36.515Z,49.76
2023-10-07T09:19:44.689Z,50.07
2023-10-07T09:20:51.642Z,50.25
2023-10-07T09:21:58.657Z,49.91
2023-10-07T09:23:02.530Z,49.98
2023-10-07T09:24:06.769Z,49.83
2023-10-07T09:25:18.183Z,49.82
2023-10-07T09:26:31.473Z,49.46
2023-10-07T09:27:38.352Z,49.45
2023-10-07T09:28:45.713Z,49.43
2023-10-07T09:29:53.028Z,49.73
2023-10-07T09:30:56.762Z,49.11
2023-10-07T09:32:05.835Z,49.39
2023-10-07T09:33:14.530Z,49.74
2023-10-07T09:34:31.942Z,49.87
2023-10-07T09:35:38.499Z,50.19
2023-10-07T09:36:41.526Z,49.18
2023-10-07T09:37:44.009Z,48.06
2023-10-07T09:38:49.706Z,48.39
2023-10-07T09:39:55.644Z,48.81
2023-10-07T09:41:13.215Z,48.67
2023-10-07T09:42:36.516Z,47.69
2023-10-07T09:43:40.400Z,47.20
2023-10-07T09:44:42.880Z,47.23
2023-10-07T09:45:48.625Z,47.05
2023-10-07T09:46:54.263Z,46.83
2023-10-07T09:48:01.964Z,46.88
2023-10-07T09:49:04.588Z,47.04
2023-10-07T09:50:20.776Z,47.04
2023-10-07T09:51:26.667Z,46.49
2023-10-07T09:52:33.843Z,47.00
2023-10-07T09:53:47.977Z,47.60
2023-10-07T09:55:21.966Z,47.45
2023-10-07T09:56:33.597Z,47.23
2023-10-07T09:57:50.579Z,46.55
2023-10-07T09:59:04.223Z,45.90
2023-10-07T10:00:39.261Z,45.96
2023-10-07T10:01:55.412Z,45.60
2023-10-07T10:03:16.978Z,45.35
2023-10-07T10:04:47.991Z,45.56
2023-10-07T10:06:05.213Z,45.16
2023-10-07T10:07:45.799Z,45.24
2023-10-07T10:08:59.266Z,45.85
2023-10-07T10:10:06.802Z,46.23
2023-10-07T10:11:31.277Z,46.07
2023-10-07T10:12:54.377Z,45.67
2023-10-07T10:14:11.893Z,45.51
2023-10-07T10:15:31.021Z,45.64
2023-10-07T10:16:46.005Z,45.87
2023-10-07T10:17:50.787Z,46.15
2023-10-07T10:19:13.511Z,45.99
2023-10-07T10:20:19.845Z,46.01
2023-10-07T10:21:25.073Z,46.10
2023-10-07T10:22:27.480Z,46.19
2023-10-07T10:23:34.269Z,46.14
2023-10-07T10:24:43.007Z,46.51
2023-10-07T10:25:45.289Z,46.26
2023-10-07T10:26:51.548Z,46.58
2023-10-07T10:28:00.066Z,46.42
2023-10-07T10:29:08.218Z,45.93
2023-10-07T10:30:23.066Z,46.11
2023-10-07T10:31:33.435Z,46.44
2023-10-07T10:32:38.538Z,46.46
2023-10-07T10:33:41.160Z,46.05
2023-10-07T10:34:46.497Z,46.00
2023-10-07T10:35:53.023Z,46.06
2023-10-07T10:36:58.019Z,45.99
2023-10-07T10:38:00.841Z,45.69
2023-10-07T10:39:29.151Z,45.63
2023-10-07T10:40:40.821Z,45.45
2023-10-07T10:41:44.074Z,45.03
2023-10-07T10:42:48.428Z,44.49
2023-10-07T10:43:51.714Z,45.07
2023-10-07T10:44:54.370Z,45.00
2023-10-07T10:46:06.339Z,44.97
2023-10-07T10:47:09.426Z,44.84
2023-10-07T10:48:16.057Z,44.70
2023-10-07T10:49:22.136Z,44.80
2023-10-07T10:50:25.425Z,44.85
2023-10-07T10:51:30.710Z,44.63
2023-10-07T10:52:34.182Z,43.95
2023-10-07T10:53:41.964Z,44.01
2023-10-07T10:54:45.512Z,44.19
2023-10-07T10:55:48.695Z,44.13
2023-10-07T10:56:52.419Z,44.19
2023-10-07T10:57:56.301Z,44.41
2023-10-07T10:58:58.574Z,43.95
2023-10-07T11:00:10.101Z,44.05
2023-10-07T11:01:12.900Z,44.13
2023-10-07T11:02:19.391Z,44.00
2023-10-07T11:03:22.691Z,43.82
2023-10-07T11:04:26.239Z,43.66
2023-10-07T11:05:28.615Z,43.72
2023-10-07T11:06:32.374Z,43.61
2023-10-07T11:07:37.252Z,43.99
2023-10-07T11:08:41.476Z,44.12
2023-10-07T11:09:48.704Z,43.78
2023-10-07T11:10:56.928Z,43.86
2023-10-07T11:11:59.372Z,43.71
2023-10-07T11:13:09.379Z,43.38
2023-10-07T11:14:14.568Z,43.35
2023-10-07T11:15:21.030Z,43.37
2023-10-07T11:16:23.753Z,43.52
2023-10-07T11:17:26.989Z,43.58
2023-10-07T11:18:32.444Z,43.12
2023-10-07T11:19:41.702Z,42.31
2023-10-07T11:20:44.565Z,42.38
2023-10-07T11:21:50.269Z,42.21
2023-10-07T11:22:54.464Z,42.22
2023-10-07T11:24:00.160Z,42.29
2023-10-07T11:25:07.409Z,42.11
2023-10-07T11:26:10.629Z,42.34
2023-10-07T11:27:14.041Z,42.49
2023-10-07T11:28:21.282Z,42.49
2023-10-07T11:29:31.487Z,42.42
2023-10-07T11:30:45.464Z,42.16
2023-10-07T11:31:48.058Z,42.69
2023-10-07T11:32:51.445Z,43.09
2023-10-07T11:33:54.154Z,42.71
2023-10-07T11:34:58.957Z,42.53
2023-10-07T11:36:03.784Z,42.30
2023-10-07T11:37:10.276Z,42.11
2023-10-07T11:38:13.231Z,42.33
2023-10-07T11:39:16.636Z,42.38
2023-10-07T11:40:21.392Z,42.46
2023-10-07T11:41:24.657Z,41.94
2023-10-07T11:42:27.888Z,41.16
2023-10-07T11:43:31.397Z,41.26
2023-10-07T11:44:33.532Z,41.47
2023-10-07T11:45:37.081Z,41.28
2023-10-07T11:46:41.979Z,41.09
2023-10-07T11:47:46.096Z,41.00
2023-10-07T11:48:48.358Z,41.22
2023-10-07T11:49:51.950Z,41.46
2023-10-07T11:50:55.873Z,41.18
2023-10-07T11:51:59.804Z,40.99
2023-10-07T11:53:02.247Z,41.01
2023-10-07T11:54:06.788Z,41.00
2023-10-07T11:55:10.664Z,41.11
2023-10-07T11:56:15.892Z,41.38
2023-10-07T11:57:19.728Z,41.90
2023-10-07T11:58:24.977Z,41.67
2023-10-07T11:59:27.680Z,41.57
2023-10-07T12:00:35.582Z,41.69
2023-10-07T12:01:39.478Z,41.78
2023-10-07T12:02:41.733Z,41.87
2023-10-07T12:03:45.037Z,41.91
2023-10-07T12:04:48.766Z,41.64
2023-10-07T12:05:52.196Z,40.83
2023-10-07T12:06:54.520Z,40.57
2023-10-07T12:08:00.678Z,40.94
2023-10-07T12:09:07.777Z,39.99
2023-10-07T12:10:16.674Z,40.08
2023-10-07T12:11:20.289Z,40.47
2023-10-07T12:12:24.075Z,40.05
2023-10-07T12:13:28.331Z,40.25
2023-10-07T12:14:34.258Z,40.43
2023-10-07T12:15:46.229Z,39.88
2023-10-07T12:16:56.646Z,40.03
2023-10-07T12:17:59.161Z,40.12
2023-10-07T12:19:01.381Z,40.35
2023-10-07T12:20:04.795Z,40.40
2023-10-07T12:21:13.563Z,40.55
2023-10-07T12:22:17.259Z,40.51
2023-10-07T12:23:19.706Z,40.39
2023-10-07T12:24:23.130Z,40.43
2023-10-07T12:25:25.305Z,40.49
2023-10-07T12:26:28.979Z,40.60
2023-10-07T12:27:32.113Z,40.71
2023-10-07T12:28:34.286Z,40.73
2023-10-07T12:29:36.500Z,41.06
2023-10-07T12:30:39.746Z,41.08
2023-10-07T12:31:43.858Z,41.30
2023-10-07T12:32:47.978Z,41.13
2023-10-07T12:33:51.933Z,41.15
2023-10-07T12:34:57.295Z,41.19
2023-10-07T12:35:59.470Z,41.41
2023-10-07T12:37:02.620Z,41.53
2023-10-07T12:38:05.189Z,41.47
2023-10-07T12:39:12.173Z,41.39
2023-10-07T12:40:18.542Z,41.48
2023-10-07T12:41:20.987Z,41.40
2023-10-07T12:42:26.873Z,41.44
2023-10-07T12:43:29.099Z,41.22
2023-10-07T12:44:32.269Z,41.35
2023-10-07T12:45:38.003Z,41.19
2023-10-07T12:46:42.417Z,41.15
2023-10-07T12:47:45.073Z,41.20
2023-10-07T12:48:48.502Z,41.10
2023-10-07T12:49:54.539Z,41.19
2023-10-07T12:50:57.769Z,41.09
2023-10-07T12:52:00.464Z,41.30
2023-10-07T12:53:05.691Z,41.05
2023-10-07T12:54:10.607Z,41.07
2023-10-07T12:55:14.186Z,40.99
2023-10-07T12:56:19.124Z,40.90
2023-10-07T12:57:22.565Z,41.08
2023-10-07T12:58:28.376Z,41.32
2023-10-07T12:59:36.838Z,41.08
2023-10-07T13:00:39.305Z,40.99
2023-10-07T13:01:42.591Z,41.02
2023-10-07T13:02:45.599Z,41.26
2023-10-07T13:03:49.514Z,41.33
2023-10-07T13:04:56.640Z,41.83
2023-10-07T13:06:02.535Z,41.91
2023-10-07T13:07:10.902Z,41.88
2023-10-07T13:08:16.735Z,41.75
2023-10-07T13:09:19.372Z,41.80
2023-10-07T13:10:22.750Z,41.72
2023-10-07T13:11:28.217Z,41.72
2023-10-07T13:12:34.223Z,41.96
2023-10-07T13:13:37.824Z,41.93
2023-10-07T13:14:42.284Z,41.81
2023-10-07T13:15:44.849Z,41.87
2023-10-07T13:16:49.776Z,41.93
2023-10-07T13:17:52.040Z,41.73
2023-10-07T13:18:55.568Z,41.46
2023-10-07T13:19:57.813Z,41.42
2023-10-07T13:21:00.368Z,41.49
2023-10-07T13:22:06.529Z,41.47
2023-10-07T13:23:12.384Z,40.92
2023-10-07T13:24:15.666Z,40.97
2023-10-07T13:25:20.932Z,41.16
2023-10-07T13:26:24.365Z,41.12
2023-10-07T13:27:27.675Z,41.01
2023-10-07T13:28:31.233Z,41.03
2023-10-07T13:29:36.063Z,41.24
2023-10-07T13:30:40.448Z,41.52
2023-10-07T13:31:42.632Z,41.40
2023-10-07T13:32:47.459Z,41.47
2023-10-07T13:33:49.823Z,41.47
2023-10-07T13:34:53.958Z,41.19
2023-10-07T13:35:57.685Z,41.22
2023-10-07T13:37:02.081Z,41.26
2023-10-07T13:38:04.692Z,41.27
2023-10-07T13:39:16.715Z,41.31
2023-10-07T13:40:20.932Z,41.21
2023-10-07T13:41:24.716Z,40.90
2023-10-07T13:42:27.523Z,40.44
2023-10-07T13:43:30.591Z,40.04
2023-10-07T13:44:35.223Z,39.97
2023-10-07T13:45:37.443Z,40.13
2023-10-07T13:46:40.930Z,40.02
2023-10-07T13:47:43.714Z,40.12
2023-10-07T13:48:46.996Z,40.19
2023-10-07T13:49:50.981Z,40.09
2023-10-07T13:51:01.286Z,39.86
2023-10-07T13:52:06.946Z,40.18
2023-10-07T13:53:16.995Z,40.34
2023-10-07T13:54:39.114Z,40.12
2023-10-07T13:55:58.817Z,39.99
2023-10-07T13:57:03.804Z,40.06
2023-10-07T13:58:07.204Z,40.30
2023-10-07T13:59:09.675Z,40.24
2023-10-07T14:00:29.234Z,40.24
2023-10-07T14:01:32.441Z,40.37
2023-10-07T14:02:34.757Z,40.47
2023-10-07T14:03:40.988Z,40.39
2023-10-07T14:04:43.402Z,40.31
2023-10-07T14:05:49.895Z,40.37
2023-10-07T14:06:55.919Z,40.34
2023-10-07T14:07:59.262Z,40.51
2023-10-07T14:09:02.373Z,40.52
2023-10-07T14:10:06.166Z,40.64
2023-10-07T14:11:09.436Z,40.85
2023-10-07T14:12:12.589Z,40.89
2023-10-07T14:13:15.076Z,41.03
2023-10-07T14:14:18.296Z,40.95
2023-10-07T14:15:22.020Z,40.98
2023-10-07T14:16:27.437Z,41.15
2023-10-07T14:17:31.394Z,41.21
2023-10-07T14:18:35.636Z,41.07